LIPR Airport Information

Runway Information
Runway 13 Length 9828 ft width 148 ft
Elevation 21 ft Threshold 1030 ft Heading 128
Runway 31 Length 9828 ft Width 148 ft
Elevation 39 ft Threshold 1006 ft Heading 308
Airport Frequencies
Type APP Name ROMAGNA AP Frequency 36.23 MHZ
Type APP Name ROMAGNA AP Frequency 118.15 MHZ
Type GCCD Name GND/CLNC D Frequency 121.6 MHZ
Type TWR Name TWR Frequency 119.1 MHZ
Airport Navaids
Type VORTAC Name Rimini Frequency 116200 KHZ
Type NDB Name Rimini Frequency 335 KHZ
Airport Weather Information & NOTAM
ADDS - METARS form results

(0944 UTC 24 June 2021)
Data provider http://aviationweather.gov/metar/data/
 
METAR text: LIPR 240920Z 04006KT 010V070 CAVOK 28/18 Q1015
Conditions at: LIPR (RIMINI (CIV/IT-A, IT) observed 0920 UTC 24 June 2021
Temperature: 28.0°C (82°F)
Dewpoint: 18.0°C (64°F) [RH = 55%]
Pressure (altimeter): 29.97 inches Hg (1015.0 mb)
Winds: from the NE (40 degrees) at 7 MPH (6 knots; 3.1 m/s)
Visibility: 6 or more miles (10+ km)
Ceiling: ceiling and visibility are OK
Clouds: unknown
Weather: no significant weather observed at this time

METAR text: LIPR 240850Z 05006KT 020V090 CAVOK 28/18 Q1015
Conditions at: LIPR (RIMINI (CIV/IT-A, IT) observed 0850 UTC 24 June 2021
Temperature: 28.0°C (82°F)
Dewpoint: 18.0°C (64°F) [RH = 55%]
Pressure (altimeter): 29.97 inches Hg (1015.0 mb)
Winds: from the NE (50 degrees) at 7 MPH (6 knots; 3.1 m/s)
Visibility: 6 or more miles (10+ km)
Ceiling: ceiling and visibility are OK
Clouds: unknown
Weather: no significant weather observed at this time

Forecast for: LIPR (RIMINI (CIV/IT-A, IT)
Text: TAF LIPR 240500Z 2406/2506 VRB05KT 9999 FEW040
Forecast period: 0600 to 0700 UTC 24 June 2021
Forecast type: FROM: standard forecast or significant change
Winds: variable direction winds at 6 MPH (5 knots; 2.6 m/s)
Visibility: 6 or more miles (10+ km)
Ceiling: at least 12,000 feet AGL
Clouds: few clouds at 4000 feet AGL
Weather: no significant weather forecast for this period
Text: BECMG 2407/2409 07010KT
Forecast period: 0700 to 1600 UTC 24 June 2021
Forecast type: BECOMING: Conditions expected to become as follows by 0900 UTC 24 June 2021
Winds: from the ENE (70 degrees) at 12 MPH (10 knots; 5.1 m/s)
Visibility: 6 or more miles (10+ km)
Ceiling: at least 12,000 feet AGL
Clouds: few clouds at 4000 feet AGL
Weather: no significant weather forecast for this period
Text: BECMG 2416/2418 VRB05KT
Forecast period: 1600 UTC 24 June 2021 to 0600 UTC 25 June 2021
Forecast type: BECOMING: Conditions expected to become as follows by 1800 UTC 24 June 2021
Winds: variable direction winds at 6 MPH (5 knots; 2.6 m/s)
Visibility: 6 or more miles (10+ km)
Ceiling: at least 12,000 feet AGL
Clouds: few clouds at 4000 feet AGL
Weather: no significant weather forecast for this period